Time;durP1;ratioP1;P1;durP2;ratioP2;P2;SDS_P1;SDS_P2;PMS_P1;PMS_P2;Temp;Humidity;BMP_temperature;BMP_pressure;BME280_temperature;BME280_humidity;BME280_pressure;Samples;Min_cycle;Max_cycle;Signal;HPM_P1;HPM_P2
2023/12/09 00:00:58;;;;;;;;;;;;;;;4.66;77.42;97803.84;4954307;28;20346;-81
2023/12/09 00:03:47;;;;;;;;;;;;;;;4.75;77.08;97801.38;4971541;28;19926;-81
2023/12/09 00:06:36;;;;;;;;;;;;;;;4.73;76.77;97802.44;4972317;28;20378;-81
2023/12/09 00:09:25;;;;;;;;;;;;;;;4.83;76.21;97790.03;4970781;28;20417;-80
2023/12/09 00:12:13;;;;;;;;;;;;;;;4.81;76.45;97779.56;4956622;28;19930;-79
2023/12/09 00:15:02;;;;;;;;;;;;;;;4.59;77.37;97788.00;4968058;28;19930;-79
2023/12/09 00:21:29;;;;;;;;;;;;;;;4.37;77.40;97785.66;4971892;28;19930;-80
2023/12/09 00:24:21;;;;;;;;;;;;;;;4.55;77.30;97789.63;4971096;28;19933;-80
2023/12/09 00:27:10;;;;;;;;;;;;;;;4.60;76.85;97781.53;4977496;28;19926;-91
2023/12/09 00:29:59;;;;;;;;;;;;;;;4.60;77.22;97776.16;4976190;28;20418;-91
2023/12/09 00:32:47;;;;;;;;;;;;;;;4.61;76.78;97776.94;4964433;28;19938;-91
2023/12/09 00:35:38;;;;;;;;;;;;;;;4.59;77.07;97777.22;4954820;28;20001;-92
2023/12/09 00:38:26;;;;;;;;;;;;;;;4.49;77.72;97779.97;4964004;28;19926;-92
2023/12/09 00:41:14;;;;;;;;;;;;;;;4.58;77.26;97777.47;4959136;28;19930;-91
2023/12/09 00:44:03;;;;;;;;;;;;;;;4.64;76.97;97776.41;4959113;28;19926;-92
2023/12/09 00:46:52;;;;;;;;;;;;;;;4.59;77.14;97779.94;4954911;28;19933;-93
2023/12/09 00:49:41;;;;;;;;;;;;;;;4.56;77.02;97780.47;4956916;28;19938;-92
2023/12/09 00:52:31;;;;;;;;;;;;;;;4.53;77.39;97786.41;4958905;28;19928;-92
2023/12/09 00:55:19;;;;;;;;;;;;;;;4.47;77.45;97788.31;4958681;28;19936;-91
2023/12/09 00:58:34;;;;;;;;;;;;;;;4.55;77.33;97789.63;4970383;28;19933;-93
2023/12/09 01:01:23;;;;;;;;;;;;;;;4.57;77.10;97798.22;4958220;28;19926;-91
2023/12/09 01:04:11;;;;;;;;;;;;;;;4.56;76.94;97791.22;4958849;28;19926;-92
2023/12/09 01:07:00;;;;;;;;;;;;;;;4.62;77.03;97803.56;4972420;28;19926;-90
2023/12/09 01:09:50;;;;;;;;;;;;;;;4.71;76.66;97809.19;4958623;28;19926;-92
2023/12/09 01:19:30;;;;;;;;;;;;;;;4.63;76.84;97807.88;4958590;28;19933;-91
2023/12/09 01:22:43;;;;;;;;;;;;;;;4.64;76.94;97809.50;4966877;28;19972;-93
2023/12/09 01:25:57;;;;;;;;;;;;;;;4.49;77.61;97809.56;4955669;28;19969;-92
2023/12/09 01:28:45;;;;;;;;;;;;;;;4.43;78.20;97810.66;4980407;28;20313;-93
2023/12/09 01:31:33;;;;;;;;;;;;;;;4.45;78.00;97811.16;4981256;28;19935;-92
2023/12/09 01:34:22;;;;;;;;;;;;;;;4.51;78.13;97812.75;4974660;28;19926;-93
2023/12/09 01:37:11;;;;;;;;;;;;;;;4.47;78.08;97819.75;4968562;28;19926;-82
2023/12/09 01:39:59;;;;;;;;;;;;;;;4.50;77.92;97826.50;4963094;28;20297;-81
2023/12/09 01:42:49;;;;;;;;;;;;;;;4.48;78.13;97824.09;4968356;28;20401;-81
2023/12/09 01:45:37;;;;;;;;;;;;;;;4.43;77.79;97821.41;4967950;28;19934;-81
2023/12/09 01:48:26;;;;;;;;;;;;;;;4.36;78.04;97827.06;4976505;28;19927;-83
2023/12/09 01:51:15;;;;;;;;;;;;;;;4.39;78.45;97831.09;4983845;28;19930;-84
2023/12/09 01:54:04;;;;;;;;;;;;;;;4.39;77.99;97818.44;4988130;28;20384;-80
2023/12/09 01:56:52;;;;;;;;;;;;;;;4.33;78.53;97821.44;4969184;28;20032;-82
2023/12/09 01:59:41;;;;;;;;;;;;;;;4.33;78.19;97818.75;4960251;28;19941;-85
2023/12/09 02:02:30;;;;;;;;;;;;;;;4.30;78.49;97827.34;4974581;28;19976;-85
2023/12/09 02:05:18;;;;;;;;;;;;;;;4.29;78.70;97823.84;4957587;28;19933;-82
2023/12/09 02:08:06;;;;;;;;;;;;;;;4.35;78.69;97822.75;4968883;28;20061;-82
2023/12/09 02:11:19;;;;;;;;;;;;;;;4.35;78.42;97820.06;4973002;28;19946;-84
2023/12/09 02:14:09;;;;;;;;;;;;;;;4.42;78.32;97827.84;4970230;28;19933;-83
2023/12/09 02:17:00;;;;;;;;;;;;;;;4.51;78.23;97834.28;4972396;28;19965;-85
2023/12/09 02:20:13;;;;;;;;;;;;;;;4.65;77.97;97835.31;4972723;28;19926;-85
2023/12/09 02:23:27;;;;;;;;;;;;;;;4.60;77.23;97838.03;4977689;28;19932;-85
2023/12/09 02:27:08;;;;;;;;;;;;;;;4.82;77.24;97821.53;4972106;28;19941;-81
2023/12/09 02:33:11;;;;;;;;;;;;;;;4.69;76.72;97833.69;4975504;28;19926;-79
2023/12/09 02:36:00;;;;;;;;;;;;;;;4.63;77.22;97834.78;4973151;28;19949;-81
2023/12/09 02:42:00;;;;;;;;;;;;;;;4.76;76.84;97838.78;4977323;28;19933;-82
2023/12/09 02:44:51;;;;;;;;;;;;;;;4.82;76.67;97844.94;4971469;28;19930;-82
2023/12/09 02:47:40;;;;;;;;;;;;;;;4.81;76.49;97843.34;4973946;28;20565;-90
2023/12/09 02:50:31;;;;;;;;;;;;;;;4.76;76.52;97846.06;4963501;28;19926;-91
2023/12/09 02:53:20;;;;;;;;;;;;;;;4.80;76.90;97844.44;4966367;28;19926;-91
2023/12/09 02:56:08;;;;;;;;;;;;;;;4.82;76.62;97847.66;4958257;28;19934;-90
2023/12/09 03:02:11;;;;;;;;;;;;;;;4.77;76.33;97864.63;4961350;28;19926;-90
2023/12/09 03:04:59;;;;;;;;;;;;;;;4.84;76.33;97864.31;4973597;28;20450;-90
2023/12/09 03:07:48;;;;;;;;;;;;;;;4.77;76.51;97856.53;4972927;28;20044;-90
2023/12/09 03:11:02;;;;;;;;;;;;;;;4.73;76.76;97863.53;4955737;28;19934;-89
2023/12/09 03:13:50;;;;;;;;;;;;;;;4.81;76.65;97856.81;4954548;28;19925;-90
2023/12/09 03:16:43;;;;;;;;;;;;;;;4.86;76.18;97860.28;4972227;28;19944;-90
2023/12/09 03:19:33;;;;;;;;;;;;;;;4.49;77.79;97860.66;4970810;28;19934;-89
2023/12/09 03:22:22;;;;;;;;;;;;;;;4.68;77.40;97867.06;4974863;28;19969;-89
2023/12/09 03:25:59;;;;;;;;;;;;;;;4.76;77.23;97859.50;4970316;28;20378;-90
2023/12/09 03:28:48;;;;;;;;;;;;;;;4.73;77.33;97856.28;4978128;28;19941;-90
2023/12/09 03:31:40;;;;;;;;;;;;;;;4.70;77.04;97856.84;4954703;28;20313;-89
2023/12/09 03:34:33;;;;;;;;;;;;;;;4.69;77.22;97860.63;4971814;28;19926;-90
2023/12/09 03:37:22;;;;;;;;;;;;;;;4.72;77.37;97864.63;4972901;28;19926;-92
2023/12/09 03:40:11;;;;;;;;;;;;;;;4.72;77.46;97861.94;4967110;28;19926;-91
2023/12/09 03:43:00;;;;;;;;;;;;;;;4.66;77.32;97853.06;4956160;28;19933;-89
2023/12/09 03:45:49;;;;;;;;;;;;;;;4.09;79.45;97843.50;4972827;28;19948;-92
2023/12/09 03:48:37;;;;;;;;;;;;;;;4.42;78.81;97842.13;4958876;28;20074;-91
2023/12/09 03:51:27;;;;;;;;;;;;;;;4.54;78.33;97841.81;4972570;28;20030;-90
2023/12/09 03:54:19;;;;;;;;;;;;;;;4.10;80.00;97834.38;4972426;28;20430;-90
2023/12/09 03:57:14;;;;;;;;;;;;;;;3.83;81.27;97842.72;4975388;28;20033;-81
2023/12/09 04:00:05;;;;;;;;;;;;;;;3.33;83.72;97816.66;4967801;28;19941;-79
2023/12/09 04:02:54;;;;;;;;;;;;;;;3.20;85.03;97817.16;4970311;28;19927;-78
2023/12/09 04:05:42;;;;;;;;;;;;;;;3.31;84.14;97816.13;4974022;28;19926;-80
2023/12/09 04:08:34;;;;;;;;;;;;;;;3.64;83.42;97818.28;4966672;28;20315;-81
2023/12/09 04:11:23;;;;;;;;;;;;;;;3.91;82.02;97817.19;4954997;28;19933;-80
2023/12/09 04:14:12;;;;;;;;;;;;;;;3.90;81.89;97815.59;4970185;28;19937;-81
2023/12/09 04:20:15;;;;;;;;;;;;;;;3.93;81.46;97813.16;4990387;28;19926;-79
2023/12/09 04:23:28;;;;;;;;;;;;;;;4.02;81.51;97808.03;4974324;28;20275;-81
2023/12/09 04:27:07;;;;;;;;;;;;;;;4.32;80.15;97812.56;4971528;28;19926;-80
2023/12/09 04:33:08;;;;;;;;;;;;;;;4.58;78.98;97810.59;4970209;28;19932;-78
2023/12/09 04:35:57;;;;;;;;;;;;;;;4.70;78.17;97808.41;4971128;28;19932;-80
2023/12/09 04:41:57;;;;;;;;;;;;;;;4.84;77.14;97813.16;4971497;28;19929;-81
2023/12/09 04:44:47;;;;;;;;;;;;;;;4.81;77.50;97809.16;4966643;28;19926;-81
2023/12/09 04:47:36;;;;;;;;;;;;;;;4.78;77.36;97816.97;4965245;28;19938;-83
2023/12/09 04:50:25;;;;;;;;;;;;;;;4.78;77.45;97819.66;4963441;28;19926;-86
2023/12/09 04:53:14;;;;;;;;;;;;;;;4.86;77.23;97816.41;4969907;28;19933;-81
2023/12/09 04:56:03;;;;;;;;;;;;;;;4.54;78.02;97814.91;4961579;28;19934;-80
2023/12/09 04:58:51;;;;;;;;;;;;;;;3.96;80.38;97802.94;4968100;28;20387;-80
2023/12/09 05:01:41;;;;;;;;;;;;;;;3.63;82.29;97807.81;4965234;28;19957;-86
2023/12/09 05:04:29;;;;;;;;;;;;;;;4.06;80.95;97803.75;4948749;28;20290;-81
2023/12/09 05:07:17;;;;;;;;;;;;;;;4.28;80.23;97799.94;4954004;28;20390;-79
2023/12/09 05:10:06;;;;;;;;;;;;;;;4.36;79.51;97808.22;4964976;28;19986;-78
2023/12/09 05:13:19;;;;;;;;;;;;;;;4.56;78.74;97817.31;4970136;28;20049;-79
2023/12/09 05:16:32;;;;;;;;;;;;;;;4.72;78.48;97816.19;4956469;28;19937;-79
2023/12/09 05:19:48;;;;;;;;;;;;;;;4.92;77.56;97820.69;4966925;28;19930;-78
2023/12/09 05:23:06;;;;;;;;;;;;;;;4.97;76.69;97808.00;4960742;28;20036;-77
2023/12/09 05:26:44;;;;;;;;;;;;;;;5.09;76.61;97810.34;4968856;28;20020;-80
2023/12/09 05:29:38;;;;;;;;;;;;;;;5.14;76.15;97810.31;4956117;28;19926;-79
2023/12/09 05:32:53;;;;;;;;;;;;;;;5.22;75.80;97808.94;4964410;28;20050;-79
2023/12/09 05:35:47;;;;;;;;;;;;;;;5.23;75.65;97805.97;4973087;28;19941;-78
2023/12/09 05:38:35;;;;;;;;;;;;;;;5.32;75.56;97810.75;4958161;28;19949;-79
2023/12/09 05:41:24;;;;;;;;;;;;;;;5.30;75.23;97812.94;4972929;28;19926;-78
2023/12/09 05:44:13;;;;;;;;;;;;;;;5.05;76.21;97809.28;4972316;28;20021;-80
2023/12/09 05:47:02;;;;;;;;;;;;;;;5.18;76.03;97813.28;4970240;28;19949;-79
2023/12/09 05:49:51;;;;;;;;;;;;;;;5.08;75.80;97808.75;4968266;28;19989;-79
2023/12/09 05:52:43;;;;;;;;;;;;;;;5.11;75.86;97808.19;4957889;28;20342;-79
2023/12/09 05:55:31;;;;;;;;;;;;;;;5.05;75.70;97816.56;4959394;28;19926;-80
2023/12/09 05:58:19;;;;;;;;;;;;;;;5.10;75.92;97817.34;4961670;28;20493;-81
2023/12/09 06:01:08;;;;;;;;;;;;;;;5.21;75.63;97813.50;4958376;28;19930;-78
2023/12/09 06:03:57;;;;;;;;;;;;;;;5.19;75.60;97820.28;4975756;28;19941;-80
2023/12/09 06:06:45;;;;;;;;;;;;;;;5.32;75.05;97821.53;4963120;28;20008;-79
2023/12/09 06:09:35;;;;;;;;;;;;;;;4.53;78.16;97823.25;4968001;28;19937;-77
2023/12/09 06:12:23;;;;;;;;;;;;;;;4.85;77.43;97815.59;4971742;28;19926;-78
2023/12/09 06:15:11;;;;;;;;;;;;;;;4.91;77.16;97814.50;4964091;28;20004;-74
2023/12/09 06:18:25;;;;;;;;;;;;;;;4.96;76.51;97809.09;4949455;28;20417;-75
2023/12/09 06:22:03;;;;;;;;;;;;;;;5.11;76.02;97805.47;4970001;28;19926;-75
2023/12/09 06:28:54;;;;;;;;;;;;;;;4.97;77.14;97826.03;4969996;28;19926;-76
2023/12/09 06:31:43;;;;;;;;;;;;;;;5.16;75.90;97824.31;4960983;28;20028;-77
2023/12/09 06:34:31;;;;;;;;;;;;;;;5.37;75.51;97826.88;4965916;28;19955;-77
2023/12/09 06:37:19;;;;;;;;;;;;;;;5.52;75.09;97818.69;4972165;28;19934;-76
2023/12/09 06:40:10;;;;;;;;;;;;;;;5.45;74.88;97823.63;4968698;28;19930;-76
2023/12/09 06:42:58;;;;;;;;;;;;;;;5.56;74.47;97821.66;4972326;28;19926;-76
2023/12/09 06:45:46;;;;;;;;;;;;;;;5.66;74.13;97829.66;4960946;28;19930;-79
2023/12/09 06:48:36;;;;;;;;;;;;;;;5.69;73.80;97819.09;4974511;28;19982;-76
2023/12/09 06:51:25;;;;;;;;;;;;;;;5.59;73.68;97819.19;4957344;28;20294;-75
2023/12/09 06:54:38;;;;;;;;;;;;;;;5.62;74.01;97821.31;4960786;28;19926;-74
2023/12/09 06:57:28;;;;;;;;;;;;;;;5.69;73.84;97824.50;4968538;28;20020;-73
2023/12/09 07:00:16;;;;;;;;;;;;;;;5.69;73.63;97824.50;4965313;28;20032;-74
2023/12/09 07:03:05;;;;;;;;;;;;;;;5.84;73.42;97823.56;4968192;28;19926;-76
2023/12/09 07:05:54;;;;;;;;;;;;;;;5.87;73.35;97819.53;4965515;28;19926;-77
2023/12/09 07:09:08;;;;;;;;;;;;;;;5.96;72.76;97817.84;4964990;28;19945;-74
2023/12/09 07:12:24;;;;;;;;;;;;;;;5.71;73.19;97805.38;4969036;28;19934;-78
2023/12/09 07:22:06;;;;;;;;;;;;;;;5.04;76.61;97799.59;4974306;28;19930;-79
2023/12/09 07:25:19;;;;;;;;;;;;;;;4.79;78.11;97805.13;4971153;28;19933;-78
2023/12/09 07:28:33;;;;;;;;;;;;;;;4.87;78.02;97799.16;4971932;28;19926;-91
2023/12/09 07:31:24;;;;;;;;;;;;;;;5.15;77.08;97797.66;4960698;28;19927;-95
2023/12/09 07:34:16;;;;;;;;;;;;;;;5.37;76.07;97799.94;4959042;28;19957;-89
2023/12/09 07:37:05;;;;;;;;;;;;;;;5.35;76.23;97792.16;4972279;28;19933;-89
2023/12/09 07:39:54;;;;;;;;;;;;;;;5.32;76.07;97798.09;4973309;28;19949;-90
2023/12/09 07:42:42;;;;;;;;;;;;;;;5.37;76.01;97795.34;4958823;28;20010;-90
2023/12/09 07:45:31;;;;;;;;;;;;;;;5.45;75.86;97793.97;4959144;28;20108;-90
2023/12/09 07:48:21;;;;;;;;;;;;;;;5.59;75.56;97794.91;4958253;28;19926;-90
2023/12/09 07:51:10;;;;;;;;;;;;;;;5.66;75.30;97792.72;4959455;28;20010;-90
2023/12/09 07:53:59;;;;;;;;;;;;;;;5.69;74.65;97789.47;4961925;28;20461;-91
2023/12/09 07:56:48;;;;;;;;;;;;;;;5.82;74.51;97792.59;4973062;28;19926;-96
2023/12/09 07:59:37;;;;;;;;;;;;;;;5.71;74.66;97794.59;4965259;23;19926;-88
2023/12/09 08:02:26;;;;;;;;;;;;;;;5.69;74.66;97792.16;4972331;28;20299;-85
2023/12/09 08:05:16;;;;;;;;;;;;;;;5.47;75.86;97786.41;4968393;28;20421;-91
2023/12/09 08:08:04;;;;;;;;;;;;;;;5.33;76.53;97788.13;4968847;28;20353;-91
2023/12/09 08:14:05;;;;;;;;;;;;;;;5.15;77.35;97778.81;4959024;28;19998;-91
2023/12/09 08:16:56;;;;;;;;;;;;;;;5.29;77.12;97779.81;4972059;28;19981;-90
2023/12/09 08:20:11;;;;;;;;;;;;;;;5.30;76.94;97777.91;4952985;28;19926;-91
2023/12/09 08:23:25;;;;;;;;;;;;;;;5.50;76.70;97772.38;4961606;28;19937;-90
2023/12/09 08:26:17;;;;;;;;;;;;;;;5.04;78.03;97778.06;4959884;28;20408;-90
2023/12/09 08:29:11;;;;;;;;;;;;;;;5.09;78.61;97778.03;4954888;28;20416;-92
2023/12/09 08:32:25;;;;;;;;;;;;;;;5.33;78.07;97766.59;4970592;28;19985;-90
2023/12/09 08:35:13;;;;;;;;;;;;;;;5.43;78.08;97774.56;4959840;28;19989;-80
2023/12/09 08:38:03;;;;;;;;;;;;;;;5.56;77.67;97770.44;4963650;28;19941;-77
2023/12/09 08:40:52;;;;;;;;;;;;;;;5.55;76.91;97769.66;4969308;28;19938;-82
2023/12/09 08:43:44;;;;;;;;;;;;;;;5.68;77.41;97771.69;4967391;28;19926;-78
2023/12/09 08:49:48;;;;;;;;;;;;;;;5.94;76.45;97779.56;4971742;28;19938;-77
2023/12/09 08:52:37;;;;;;;;;;;;;;;6.02;76.09;97776.28;4971539;28;20022;-77
2023/12/09 08:58:40;;;;;;;;;;;;;;;5.98;76.24;97761.75;4963550;28;19933;-77
2023/12/09 09:01:31;;;;;;;;;;;;;;;6.08;75.76;97755.44;4968595;28;19927;-80
2023/12/09 09:04:22;;;;;;;;;;;;;;;5.53;77.38;97742.16;4962883;28;19937;-78
2023/12/09 09:07:10;;;;;;;;;;;;;;;6.01;76.25;97744.97;4976908;28;19926;-77
2023/12/09 09:09:58;;;;;;;;;;;;;;;6.09;75.68;97740.88;4968060;28;19915;-78
2023/12/09 09:13:14;;;;;;;;;;;;;;;6.00;76.40;97746.06;4974555;28;20024;-77
2023/12/09 09:16:04;;;;;;;;;;;;;;;5.95;76.65;97740.72;4972647;28;20358;-77
2023/12/09 09:18:54;;;;;;;;;;;;;;;6.12;76.21;97757.25;4972412;28;19926;-79
2023/12/09 09:22:08;;;;;;;;;;;;;;;6.12;75.81;97753.75;4976866;28;19929;-78
2023/12/09 09:28:58;;;;;;;;;;;;;;;6.48;74.48;97746.88;4972059;28;20375;-77
2023/12/09 09:31:47;;;;;;;;;;;;;;;6.41;74.90;97751.03;4964199;28;20298;-77
2023/12/09 09:34:39;;;;;;;;;;;;;;;6.39;74.78;97742.41;4970324;28;19926;-81
2023/12/09 09:37:28;;;;;;;;;;;;;;;6.49;74.41;97728.78;4974708;28;20317;-77
2023/12/09 09:40:16;;;;;;;;;;;;;;;6.44;74.84;97723.44;4963504;28;20021;-76
2023/12/09 09:43:06;;;;;;;;;;;;;;;6.20;75.75;97721.59;4958429;28;19934;-78
2023/12/09 09:45:55;;;;;;;;;;;;;;;5.95;76.35;97713.75;4972880;28;20310;-89
2023/12/09 09:48:44;;;;;;;;;;;;;;;6.21;75.90;97700.81;4956847;28;20378;-88
2023/12/09 09:51:34;;;;;;;;;;;;;;;5.94;76.94;97685.19;4957149;28;19934;-89
2023/12/09 09:54:24;;;;;;;;;;;;;;;5.80;77.25;97674.25;4972048;28;20433;-88
2023/12/09 09:57:18;;;;;;;;;;;;;;;5.91;77.91;97670.41;4954903;28;19981;-89
2023/12/09 10:00:13;;;;;;;;;;;;;;;5.68;78.50;97669.25;4969842;28;20410;-90
2023/12/09 10:03:02;;;;;;;;;;;;;;;6.10;77.88;97667.75;4963659;28;19926;-89
2023/12/09 10:05:53;;;;;;;;;;;;;;;5.87;77.44;97668.53;4967726;28;19933;-89
2023/12/09 10:08:43;;;;;;;;;;;;;;;6.11;77.24;97661.25;4975546;28;20368;-89
2023/12/09 10:11:56;;;;;;;;;;;;;;;6.27;76.80;97649.19;4961459;28;19977;-92
2023/12/09 10:14:47;;;;;;;;;;;;;;;6.32;76.19;97637.53;4975244;28;19926;-79
2023/12/09 10:17:38;;;;;;;;;;;;;;;6.42;75.82;97639.31;4960412;28;19927;-90
2023/12/09 10:20:29;;;;;;;;;;;;;;;6.33;75.73;97632.94;4976227;28;19930;-90
2023/12/09 10:23:17;;;;;;;;;;;;;;;6.14;75.98;97611.34;4972132;28;20231;-92
2023/12/09 10:26:07;;;;;;;;;;;;;;;6.28;75.97;97615.75;4964954;28;19938;-81
2023/12/09 10:29:44;;;;;;;;;;;;;;;6.37;75.83;97623.19;4973402;28;19967;-90
2023/12/09 10:32:58;;;;;;;;;;;;;;;6.36;75.84;97616.19;4974347;28;19961;-90
2023/12/09 10:35:47;;;;;;;;;;;;;;;6.28;75.61;97623.84;4963702;28;19927;-91
2023/12/09 10:38:40;;;;;;;;;;;;;;;6.50;75.40;97622.47;4957630;28;20013;-88
2023/12/09 10:45:08;;;;;;;;;;;;;;;6.31;76.24;97625.16;4964866;28;19926;-88
2023/12/09 10:47:57;;;;;;;;;;;;;;;6.12;76.54;97622.41;4962174;28;19926;-90
2023/12/09 10:50:48;;;;;;;;;;;;;;;6.15;76.40;97621.84;4961166;28;19953;-90
2023/12/09 10:53:40;;;;;;;;;;;;;;;5.96;76.92;97624.50;4961685;28;19934;-89
2023/12/09 11:00:10;;;;;;;;;;;;;;;6.01;76.56;97620.94;4975341;28;19926;-84
2023/12/09 11:03:00;;;;;;;;;;;;;;;6.05;76.57;97621.97;4969713;28;19930;-82
2023/12/09 11:05:51;;;;;;;;;;;;;;;6.14;76.29;97619.44;4970095;28;19934;-87
2023/12/09 11:08:42;;;;;;;;;;;;;;;6.39;75.52;97620.97;4972955;28;19926;-89
2023/12/09 11:11:30;;;;;;;;;;;;;;;6.46;75.62;97627.63;4974933;28;19926;-85
2023/12/09 11:14:19;;;;;;;;;;;;;;;6.49;74.78;97626.25;4972362;28;19948;-82
2023/12/09 11:17:22;;;;;;;;;;;;;;;6.55;74.44;97615.09;4972226;28;20271;-80
2023/12/09 11:20:37;;;;;;;;;;;;;;;6.23;74.62;97604.19;4967889;28;19926;-76
2023/12/09 11:23:28;;;;;;;;;;;;;;;6.00;75.83;97590.47;4970668;28;19926;-82
2023/12/09 11:26:17;;;;;;;;;;;;;;;6.14;76.09;97577.09;4956580;28;19926;-82
2023/12/09 11:29:05;;;;;;;;;;;;;;;6.10;75.42;97586.03;4973671;28;20302;-80
2023/12/09 11:31:54;;;;;;;;;;;;;;;6.15;75.37;97578.69;4957580;28;20412;-85
2023/12/09 11:34:42;;;;;;;;;;;;;;;6.19;74.91;97563.53;4992260;28;19937;-83
2023/12/09 11:37:30;;;;;;;;;;;;;;;5.93;76.15;97559.56;4959605;28;20408;-78
2023/12/09 11:40:20;;;;;;;;;;;;;;;6.11;75.59;97544.50;4956706;28;20271;-82
2023/12/09 11:43:09;;;;;;;;;;;;;;;6.17;75.72;97530.63;4968208;28;19961;-86
2023/12/09 11:45:57;;;;;;;;;;;;;;;6.00;74.82;97538.44;4955490;28;19926;-78
2023/12/09 11:52:02;;;;;;;;;;;;;;;6.13;75.23;97542.31;4968941;28;19973;-75
2023/12/09 11:54:58;;;;;;;;;;;;;;;6.06;74.79;97533.78;4962453;28;20330;-77
2023/12/09 11:58:12;;;;;;;;;;;;;;;5.74;75.42;97525.25;4955818;28;19926;-75
2023/12/09 12:01:06;;;;;;;;;;;;;;;5.88;75.40;97517.28;4970920;28;19938;-79
2023/12/09 12:03:55;;;;;;;;;;;;;;;5.96;75.01;97503.16;4958227;28;20525;-78
2023/12/09 12:06:43;;;;;;;;;;;;;;;6.07;74.80;97494.91;4974795;28;19937;-91
2023/12/09 12:09:31;;;;;;;;;;;;;;;5.95;75.31;97471.91;4960790;28;19926;-95
2023/12/09 12:12:20;;;;;;;;;;;;;;;5.97;75.29;97464.34;4970435;28;19926;-91
2023/12/09 12:15:09;;;;;;;;;;;;;;;6.04;75.07;97458.56;4970138;28;19926;-93
2023/12/09 12:18:01;;;;;;;;;;;;;;;5.97;75.97;97448.16;4961790;28;19930;-89
2023/12/09 12:20:50;;;;;;;;;;;;;;;6.10;75.30;97441.22;4979079;28;19926;-89
2023/12/09 12:23:39;;;;;;;;;;;;;;;5.93;75.38;97443.63;4972486;28;20127;-82
2023/12/09 12:26:31;;;;;;;;;;;;;;;6.22;74.65;97433.47;4966773;28;20279;-87
2023/12/09 12:29:44;;;;;;;;;;;;;;;6.12;75.03;97416.63;4954117;28;20405;-93
2023/12/09 12:33:23;;;;;;;;;;;;;;;5.96;75.03;97429.56;4954995;28;19953;-92
2023/12/09 12:36:16;;;;;;;;;;;;;;;6.19;75.03;97425.16;4964923;28;19926;-92
2023/12/09 12:39:10;;;;;;;;;;;;;;;5.84;75.40;97415.69;4963202;28;19934;-90
2023/12/09 12:41:58;;;;;;;;;;;;;;;5.87;75.84;97421.31;4977625;28;19934;-92
2023/12/09 12:44:47;;;;;;;;;;;;;;;5.86;75.83;97406.25;4964828;28;19937;-92
2023/12/09 12:47:38;;;;;;;;;;;;;;;5.93;75.59;97393.22;4958325;28;20024;-91
2023/12/09 12:50:30;;;;;;;;;;;;;;;6.00;75.41;97376.66;4963690;28;19933;-94
2023/12/09 12:53:22;;;;;;;;;;;;;;;6.01;75.03;97367.47;4960050;28;20412;-92
2023/12/09 12:56:11;;;;;;;;;;;;;;;6.20;74.88;97367.44;4953043;28;19936;-92
2023/12/09 12:59:28;;;;;;;;;;;;;;;6.26;75.14;97364.34;4962165;28;20283;-90
2023/12/09 13:02:22;;;;;;;;;;;;;;;5.96;75.14;97354.06;4963134;28;20332;-92
2023/12/09 13:05:10;;;;;;;;;;;;;;;5.93;75.82;97349.28;4960736;28;19926;-92
2023/12/09 13:07:59;;;;;;;;;;;;;;;5.61;76.22;97331.94;4958642;28;20033;-90
2023/12/09 13:14:05;;;;;;;;;;;;;;;5.47;76.80;97326.50;4970004;28;19934;-92
2023/12/09 13:17:00;;;;;;;;;;;;;;;5.78;76.63;97331.41;4972542;28;19933;-78
2023/12/09 13:19:49;;;;;;;;;;;;;;;5.65;76.45;97327.59;4963827;28;19977;-78
2023/12/09 13:22:38;;;;;;;;;;;;;;;5.98;75.25;97317.63;4975063;28;19934;-78
2023/12/09 13:28:40;;;;;;;;;;;;;;;5.98;75.53;97296.06;4963844;28;19926;-77
2023/12/09 13:31:29;;;;;;;;;;;;;;;5.92;75.21;97299.16;4970679;28;20016;-79
2023/12/09 13:34:17;;;;;;;;;;;;;;;5.92;74.89;97301.84;4971799;28;19957;-77
2023/12/09 13:37:06;;;;;;;;;;;;;;;5.89;74.64;97288.91;4962611;28;20442;-78
2023/12/09 13:43:06;;;;;;;;;;;;;;;5.63;76.39;97281.25;4956724;28;19926;-78
2023/12/09 13:46:02;;;;;;;;;;;;;;;5.63;76.04;97270.47;4974130;28;20313;-77
2023/12/09 13:52:02;;;;;;;;;;;;;;;5.69;76.44;97247.72;4973847;28;20378;-77
2023/12/09 13:54:51;;;;;;;;;;;;;;;5.87;75.87;97240.69;4974178;28;19926;-78
2023/12/09 13:57:40;;;;;;;;;;;;;;;5.92;75.85;97248.72;4986397;28;19981;-79
2023/12/09 14:00:29;;;;;;;;;;;;;;;5.75;75.98;97243.88;4988298;28;20016;-78
2023/12/09 14:03:19;;;;;;;;;;;;;;;5.30;77.68;97244.63;4962983;28;20020;-78
2023/12/09 14:06:07;;;;;;;;;;;;;;;5.41;77.59;97244.16;4948754;28;19926;-79
2023/12/09 14:08:57;;;;;;;;;;;;;;;5.46;77.27;97244.06;4957768;28;19933;-79
2023/12/09 14:11:46;;;;;;;;;;;;;;;5.51;78.15;97253.97;4975922;28;19985;-80
2023/12/09 14:14:34;;;;;;;;;;;;;;;5.49;77.69;97248.09;4953553;28;20452;-77
2023/12/09 14:17:22;;;;;;;;;;;;;;;5.81;77.12;97233.00;4958298;28;19926;-78
2023/12/09 14:20:15;;;;;;;;;;;;;;;5.86;76.36;97227.50;4962163;28;19976;-78
2023/12/09 14:23:29;;;;;;;;;;;;;;;5.76;76.37;97207.72;4969951;28;19926;-77
2023/12/09 14:26:17;;;;;;;;;;;;;;;5.45;77.54;97202.06;4973495;28;19932;-77
2023/12/09 14:29:06;;;;;;;;;;;;;;;5.61;77.48;97191.84;4975822;28;20078;-76
2023/12/09 14:31:54;;;;;;;;;;;;;;;5.75;77.17;97191.84;4973606;28;19934;-78
2023/12/09 14:34:43;;;;;;;;;;;;;;;5.84;76.70;97178.47;4974653;28;19926;-78
2023/12/09 14:37:33;;;;;;;;;;;;;;;5.65;76.55;97165.91;4965883;28;20424;-78
2023/12/09 14:40:21;;;;;;;;;;;;;;;5.66;76.66;97162.09;4974649;28;19961;-77
2023/12/09 14:43:09;;;;;;;;;;;;;;;5.53;77.29;97144.78;4949867;28;19952;-77
2023/12/09 14:45:59;;;;;;;;;;;;;;;5.68;76.69;97157.19;4970081;28;19926;-78
2023/12/09 14:49:12;;;;;;;;;;;;;;;5.60;77.04;97151.72;4972427;28;19933;-79
2023/12/09 14:52:00;;;;;;;;;;;;;;;5.69;76.92;97150.72;4968899;28;19941;-76
2023/12/09 14:54:50;;;;;;;;;;;;;;;5.84;76.26;97138.03;4974642;28;19926;-76
2023/12/09 14:57:38;;;;;;;;;;;;;;;5.90;75.86;97134.16;4974487;28;19926;-79
2023/12/09 15:00:27;;;;;;;;;;;;;;;5.52;76.80;97104.69;4974790;28;19933;-77
2023/12/09 15:03:17;;;;;;;;;;;;;;;5.63;77.19;97091.81;4958431;28;20021;-77
2023/12/09 15:06:05;;;;;;;;;;;;;;;5.58;77.28;97068.47;4972031;28;20391;-77
2023/12/09 15:08:54;;;;;;;;;;;;;;;5.57;77.41;97050.72;4960881;28;19934;-77
2023/12/09 15:11:43;;;;;;;;;;;;;;;5.60;76.67;97043.94;4970013;28;20418;-78
2023/12/09 15:14:32;;;;;;;;;;;;;;;5.58;77.14;97030.75;4972300;28;20429;-77
2023/12/09 15:17:21;;;;;;;;;;;;;;;5.60;76.94;97033.97;4947814;28;19925;-78
2023/12/09 15:20:12;;;;;;;;;;;;;;;5.44;77.68;97032.66;4975574;28;20004;-76
2023/12/09 15:26:14;;;;;;;;;;;;;;;5.62;77.30;97039.03;4971825;28;19926;-77
2023/12/09 15:29:04;;;;;;;;;;;;;;;5.64;77.00;97024.16;4957064;28;19926;-79
2023/12/09 15:31:52;;;;;;;;;;;;;;;5.73;76.69;97016.97;4973954;28;20290;-77
2023/12/09 15:34:44;;;;;;;;;;;;;;;5.37;77.81;97005.31;4971604;28;19937;-78
2023/12/09 15:37:32;;;;;;;;;;;;;;;5.73;76.45;97011.56;4966515;28;20410;-78
2023/12/09 15:40:21;;;;;;;;;;;;;;;5.68;76.41;97000.09;4973831;28;19933;-78
2023/12/09 15:43:09;;;;;;;;;;;;;;;5.55;76.41;96988.25;4971412;28;19933;-77
2023/12/09 15:45:59;;;;;;;;;;;;;;;5.61;77.10;96992.44;4966394;28;19937;-94
2023/12/09 15:51:59;;;;;;;;;;;;;;;5.63;76.73;96992.13;4957185;28;19927;-95
2023/12/09 15:54:50;;;;;;;;;;;;;;;5.64;77.10;96989.13;4959542;28;19927;-94
2023/12/09 15:57:38;;;;;;;;;;;;;;;5.92;76.39;96986.44;4988128;28;19933;-94
2023/12/09 16:00:27;;;;;;;;;;;;;;;5.61;76.19;96981.66;4962955;28;19937;-94
2023/12/09 16:03:17;;;;;;;;;;;;;;;5.86;76.02;96983.03;4964404;28;19937;-96
2023/12/09 16:06:07;;;;;;;;;;;;;;;5.86;75.54;96974.09;4965309;28;19933;-95
2023/12/09 16:08:55;;;;;;;;;;;;;;;5.96;75.47;96971.22;4963423;28;20408;-94
2023/12/09 16:11:47;;;;;;;;;;;;;;;6.16;74.84;96967.28;4962455;28;19933;-94
2023/12/09 16:14:36;;;;;;;;;;;;;;;6.32;74.50;96956.91;4968354;28;19926;-93
2023/12/09 16:17:24;;;;;;;;;;;;;;;5.98;75.35;96950.97;4977121;28;19926;-93
2023/12/09 16:20:16;;;;;;;;;;;;;;;6.28;74.33;96944.06;4990245;28;19926;-94
2023/12/09 16:23:32;;;;;;;;;;;;;;;6.38;73.97;96932.19;4982741;28;20374;-94
2023/12/09 16:26:22;;;;;;;;;;;;;;;6.30;73.17;96932.94;4962851;28;19926;-94
2023/12/09 16:29:10;;;;;;;;;;;;;;;6.13;74.11;96933.63;4964259;28;20178;-95
2023/12/09 16:32:24;;;;;;;;;;;;;;;6.25;73.73;96924.97;4961995;28;20386;-94
2023/12/09 16:35:15;;;;;;;;;;;;;;;6.24;73.67;96934.19;4971247;28;19948;-95
2023/12/09 16:38:04;;;;;;;;;;;;;;;6.49;73.09;96927.34;4976191;28;20197;-94